East Burke, VT

1:45 PM EDT on May 29, 2017 (GMT -0400)
East Burke, VT | | Change Station

Elev 1332 ft 44.57 °N, 71.93 °W | Updated 11 seconds ago

Rain
Rain
52.5 °F
Feels Like 52.5 °F
N
4.6
Wind Variable Wind from South
Gusts 6.3 mph

Today
High -- | Low -- °F
--% Chance of Precip.
Yesterday
High -- | Low -- °F
Precip. -- in
Pressure 30.01 in
Visibility 7.0 miles
Clouds Scattered Clouds 1000 ft
Overcast 1900 ft
Dew Point 52 °F
Humidity 98%
Rainfall 0.02 in
Snow Depth Not available.
5:07 AM 8:23 PM
Waxing Crescent, 21% visible
METAR KCDA 291735Z AUTO 13006KT 7SM -RA SCT010 OVC019 11/10 A3001 RMK AO2 T01110095
Pressure 30.01 in
Visibility 7.0 miles
Clouds Scattered Clouds 1000 ft
Overcast 1900 ft
Dew Point 52 °F
Humidity 98%
Rainfall 0.02 in
Snow Depth Not available.
5:07 AM 8:23 PM
Waxing Crescent, 21% visible
METAR KCDA 291735Z AUTO 13006KT 7SM -RA SCT010 OVC019 11/10 A3001 RMK AO2 T01110095

Get Severe Weather Alerts

Thanks for signing up!

Be on the lookout for a verification email in your inbox.

You'll start receiving the daily forecast at 6 AM.

×

10-Day Weather Forecast

Almanac

Astronomy

May. 29, 2017 Rise Set
Actual Time
Civil Twilight
Nautical Twilight
Astronomical Twilight
Moon
Length of Visible Light
Length of Day
Tomorrow will be .
, % of the Moon is Illuminated

Today's Extremes

State Highs State Lows

Community

WunderPhotos

Category 6

Welcome to Category 6. This is the collective home for Weather Underground's featured writeups by Dr. Jeff Masters (right), Bob Henson (left), Chris Burt, and other regular contributors.

Nearby

Air Quality

  Air Quality AQ Index Pollutant
Not available.

Snow Depth

Station Depth Elevation

Earthquake Activity

City Distance Mag. Time & Date
Minimum magnitude displayed is 2.5.

Coastal Water Temperatures

Place Temperature

Stations

Nearby Weather Stations

Station Location Temp. Windchill Dew Point Humidity Wind Precip. Elev Updated Type
                   

Watches & Warnings

There are currently no watches in effect.